createdAt,value
2017-11-17T00:00:03.045Z,1.2
2017-11-17T00:15:02.585Z,1.2
2017-11-17T00:30:03.263Z,1.2
2017-11-17T00:45:02.889Z,1.1
2017-11-17T01:00:03.588Z,1.2
2017-11-17T01:15:03.122Z,1.2
2017-11-17T01:30:02.775Z,1.2
2017-11-17T01:45:03.395Z,1.2
2017-11-17T02:00:02.983Z,1.2
2017-11-17T02:15:02.648Z,1.2
2017-11-17T02:30:03.281Z,1.2
2017-11-17T02:45:02.963Z,1.2
2017-11-17T03:00:02.530Z,1.2
2017-11-17T03:15:03.139Z,1.2
2017-11-17T03:30:02.801Z,1.2
2017-11-17T03:45:03.373Z,1.2
2017-11-17T04:00:02.924Z,1.2
2017-11-17T04:15:02.541Z,1.2
2017-11-17T04:30:03.155Z,1.3
2017-11-17T04:45:02.771Z,1.3
2017-11-17T05:00:03.324Z,1.3
2017-11-17T05:15:02.929Z,1.4
2017-11-17T05:30:02.599Z,1.4
2017-11-17T05:45:03.155Z,1.4
2017-11-17T06:00:02.725Z,1.4
2017-11-17T06:15:03.346Z,1.4
2017-11-17T06:30:03.030Z,1.4
2017-11-17T06:45:02.652Z,1.5
2017-11-17T07:00:03.215Z,1.6
2017-11-17T07:15:02.846Z,1.7
2017-11-17T07:30:03.496Z,1.8
2017-11-17T07:45:03.108Z,1.9
2017-11-17T08:00:02.745Z,2.1
2017-11-17T08:15:03.358Z,2.4
2017-11-17T08:30:03.012Z,2.4
2017-11-17T08:45:02.564Z,2.6
2017-11-17T09:00:03.154Z,2.7
2017-11-17T09:15:03.069Z,2.5
2017-11-17T09:30:02.746Z,2.8
2017-11-17T09:45:03.320Z,2.8
2017-11-17T10:00:02.901Z,2.8
2017-11-17T10:15:02.471Z,3
2017-11-17T10:30:03.180Z,3.1
2017-11-17T10:45:02.772Z,3.1
2017-11-17T11:00:03.354Z,3.2
2017-11-17T11:15:02.941Z,3.2
2017-11-17T11:30:02.586Z,3.3
2017-11-17T11:45:03.157Z,4.2
2017-11-17T12:00:02.683Z,3.6
2017-11-17T12:15:03.250Z,3.9
2017-11-17T12:30:02.911Z,4.1
2017-11-17T12:45:02.511Z,4.2
2017-11-17T13:00:03.063Z,4.2
2017-11-17T13:15:02.647Z,4.1
2017-11-17T13:30:03.366Z,4.1
2017-11-17T13:45:02.947Z,4.1
2017-11-17T14:00:02.552Z,4.2
2017-11-17T14:15:03.139Z,4
2017-11-17T14:30:02.756Z,3.9
2017-11-17T14:45:03.378Z,3.8
2017-11-17T15:00:02.919Z,3.7
2017-11-17T15:15:02.549Z,3.6
2017-11-17T15:30:03.191Z,3.6
2017-11-17T15:45:02.757Z,3.4
2017-11-17T16:00:03.345Z,3.4
2017-11-17T16:15:02.909Z,3.3
2017-11-17T16:30:02.599Z,3.2
2017-11-17T16:45:03.143Z,3.2
2017-11-17T17:00:02.760Z,3.2
2017-11-17T17:15:03.360Z,3.1
2017-11-17T17:30:02.971Z,3.1
2017-11-17T17:45:02.553Z,2.9
2017-11-17T18:00:03.175Z,3
2017-11-17T18:15:02.759Z,2.9
2017-11-17T18:30:03.496Z,2.9
2017-11-17T18:45:03.042Z,3
2017-11-17T19:00:02.734Z,2.9
2017-11-17T19:15:03.356Z,2.9
2017-11-17T19:30:03.067Z,2.9
2017-11-17T19:45:02.629Z,2.8
2017-11-17T20:00:03.165Z,2.9
2017-11-17T20:15:02.771Z,2.8
2017-11-17T20:30:03.376Z,2.8
2017-11-17T20:45:02.978Z,2.9
2017-11-17T21:00:02.584Z,2.9
2017-11-17T21:15:03.166Z,2.8
2017-11-17T21:30:02.818Z,2.8
2017-11-17T21:45:03.365Z,2.6
2017-11-17T22:00:02.969Z,2.6
2017-11-17T22:15:02.573Z,2.6
2017-11-17T22:30:03.163Z,2.5
2017-11-17T22:45:02.840Z,2.6
2017-11-17T23:00:03.416Z,2.6
2017-11-17T23:15:03.120Z,2.6
2017-11-17T23:30:02.753Z,2.6
2017-11-17T23:45:03.380Z,2.4
